createdAt,value
2022-08-06T00:00:07.263Z,97777.53
2022-08-06T00:02:31.161Z,97769.72
2022-08-06T00:05:03.771Z,97778.34
2022-08-06T00:07:45.357Z,97776.94
2022-08-06T00:10:18.376Z,97778.16
2022-08-06T00:12:47.968Z,97779.38
2022-08-06T00:15:19.994Z,97776.72
2022-08-06T00:18:07.040Z,97784.72
2022-08-06T00:20:41.684Z,97780.97
2022-08-06T00:23:16.382Z,97790.00
2022-08-06T00:25:52.054Z,97791.22
2022-08-06T00:28:30.500Z,97787.91
2022-08-06T00:31:05.638Z,97792.19
2022-08-06T00:33:44.531Z,97788.88
2022-08-06T00:36:24.920Z,97783.97
2022-08-06T00:38:53.720Z,97786.63
2022-08-06T00:41:22.581Z,97785.59
2022-08-06T00:43:50.204Z,97787.44
2022-08-06T00:46:17.893Z,97782.94
2022-08-06T00:48:54.022Z,97783.75
2022-08-06T00:51:24.455Z,97789.09
2022-08-06T00:54:10.569Z,97789.28
2022-08-06T00:56:38.117Z,97789.91
2022-08-06T00:59:10.819Z,97783.34
2022-08-06T01:01:50.343Z,97798.91
2022-08-06T01:04:19.888Z,97798.09
2022-08-06T01:06:56.775Z,97799.72
2022-08-06T01:09:27.228Z,97801.53
2022-08-06T01:12:00.198Z,97806.81
2022-08-06T01:14:38.341Z,97803.72
2022-08-06T01:17:34.087Z,97798.91
2022-08-06T01:22:01.500Z,97803.75
2022-08-06T01:23:53.346Z,97811.72
2022-08-06T01:26:37.336Z,97808.78
2022-08-06T01:29:19.468Z,97815.91
2022-08-06T01:32:06.194Z,97812.19
2022-08-06T01:34:47.250Z,97813.94
2022-08-06T01:37:38.824Z,97824.56
2022-08-06T01:40:17.660Z,97836.19
2022-08-06T01:42:54.328Z,97836.50
2022-08-06T01:45:42.639Z,97835.41
2022-08-06T01:48:28.868Z,97828.06
2022-08-06T01:51:02.978Z,97837.78
2022-08-06T01:54:05.278Z,97840.91
2022-08-06T01:56:31.036Z,97839.28
2022-08-06T01:59:04.559Z,97848.66
2022-08-06T02:01:53.996Z,97853.53
2022-08-06T02:04:30.251Z,97852.16
2022-08-06T02:07:02.423Z,97855.13
2022-08-06T02:09:37.821Z,97868.06
2022-08-06T02:12:17.357Z,97861.72
2022-08-06T02:15:00.660Z,97860.25
2022-08-06T02:18:04.454Z,97857.59
2022-08-06T02:20:53.089Z,97869.88
2022-08-06T02:23:33.060Z,97872.75
2022-08-06T02:26:04.537Z,97877.69
2022-08-06T02:28:35.261Z,97887.31
2022-08-06T02:31:06.816Z,97880.81
2022-08-06T02:34:02.828Z,97886.19
2022-08-06T02:36:51.267Z,97882.66
2022-08-06T02:39:52.958Z,97891.47
2022-08-06T02:42:40.198Z,97898.06
2022-08-06T02:45:24.915Z,97894.56
2022-08-06T02:48:22.246Z,97901.72
2022-08-06T02:51:44.058Z,97906.88
2022-08-06T02:54:13.301Z,97902.47
2022-08-06T02:56:48.170Z,97910.94
2022-08-06T02:59:25.055Z,97914.78
2022-08-06T03:02:05.431Z,97924.69
2022-08-06T03:04:37.349Z,97924.88
2022-08-06T03:07:26.430Z,97923.22
2022-08-06T03:09:56.536Z,97928.38
2022-08-06T03:12:29.264Z,97933.50
2022-08-06T03:15:07.633Z,97934.63
2022-08-06T03:17:42.277Z,97937.09
2022-08-06T03:20:19.648Z,97942.50
2022-08-06T03:22:59.937Z,97943.97
2022-08-06T03:25:31.579Z,97952.22
2022-08-06T03:28:02.729Z,97946.50
2022-08-06T03:30:34.035Z,97955.13
2022-08-06T03:33:29.044Z,97954.31
2022-08-06T03:36:01.922Z,97954.59
2022-08-06T03:38:47.217Z,97953.56
2022-08-06T03:41:23.041Z,97962.47
2022-08-06T03:44:04.008Z,97967.41
2022-08-06T03:46:59.777Z,97971.47
2022-08-06T03:49:43.775Z,97972.94
2022-08-06T03:52:22.996Z,97980.63
2022-08-06T03:54:56.464Z,97990.25
2022-08-06T03:57:40.407Z,98005.25
2022-08-06T04:00:11.899Z,98005.13
2022-08-06T04:02:50.969Z,98011.66
2022-08-06T04:05:26.171Z,98014.59
2022-08-06T04:07:58.473Z,98024.44
2022-08-06T04:10:37.550Z,98030.41
2022-08-06T04:13:40.419Z,98036.09
2022-08-06T04:16:02.260Z,98044.88
2022-08-06T04:18:42.163Z,98046.75
2022-08-06T04:21:20.822Z,98042.66
2022-08-06T04:24:05.382Z,98053.88
2022-08-06T04:26:40.618Z,98059.16
2022-08-06T04:29:12.527Z,98051.25
2022-08-06T04:32:11.323Z,98070.69
2022-08-06T04:34:33.088Z,98066.44
2022-08-06T04:37:06.249Z,98073.84
2022-08-06T04:39:50.034Z,98077.53
2022-08-06T04:42:19.406Z,98084.91
2022-08-06T04:44:59.273Z,98088.13
2022-08-06T04:47:41.518Z,98090.94
2022-08-06T04:50:11.582Z,98094.56
2022-08-06T04:52:49.251Z,98105.19
2022-08-06T04:55:24.990Z,98117.16
2022-08-06T04:58:11.453Z,98120.66
2022-08-06T05:01:01.030Z,98126.66
2022-08-06T05:04:06.571Z,98137.50
2022-08-06T05:06:47.116Z,98151.94
2022-08-06T05:09:38.253Z,98154.22
2022-08-06T05:12:53.326Z,98159.94
2022-08-06T05:15:31.582Z,98166.34
2022-08-06T05:19:15.785Z,98177.72
2022-08-06T05:21:18.154Z,98191.53
2022-08-06T05:23:54.591Z,98190.06
2022-08-06T05:26:26.362Z,98201.88
2022-08-06T05:28:54.353Z,98210.97
2022-08-06T05:31:40.648Z,98218.75
2022-08-06T05:34:12.822Z,98228.88
2022-08-06T05:36:42.233Z,98236.56
2022-08-06T05:39:51.412Z,98248.59
2022-08-06T05:41:59.640Z,98244.00
2022-08-06T05:44:29.714Z,98254.28
2022-08-06T05:47:11.107Z,98260.47
2022-08-06T05:49:58.465Z,98273.25
2022-08-06T05:52:48.750Z,98274.00
2022-08-06T05:55:42.979Z,98273.00
2022-08-06T05:58:19.253Z,98274.63
2022-08-06T06:00:48.142Z,98278.59
2022-08-06T06:03:33.148Z,98273.94
2022-08-06T06:06:17.467Z,98278.25
2022-08-06T06:08:58.698Z,98276.09
2022-08-06T06:11:54.847Z,98278.22
2022-08-06T06:14:41.787Z,98279.44
2022-08-06T06:17:39.011Z,98280.44
2022-08-06T06:21:03.075Z,98291.09
2022-08-06T06:23:33.888Z,98283.69
2022-08-06T06:26:33.041Z,98294.97
2022-08-06T06:30:02.142Z,98290.94
2022-08-06T06:32:53.783Z,98296.38
2022-08-06T06:35:36.896Z,98305.03
2022-08-06T06:38:18.777Z,98304.63
2022-08-06T06:41:20.529Z,98310.00
2022-08-06T06:44:17.122Z,98315.34
2022-08-06T06:47:04.767Z,98321.41
2022-08-06T06:50:01.332Z,98324.09
2022-08-06T06:52:39.987Z,98329.16
2022-08-06T06:55:27.089Z,98330.16
2022-08-06T06:58:27.046Z,98328.81
2022-08-06T07:01:14.581Z,98335.41
2022-08-06T07:03:48.805Z,98351.88
2022-08-06T07:06:31.576Z,98343.41
2022-08-06T07:09:14.886Z,98365.88
2022-08-06T07:12:02.872Z,98358.38
2022-08-06T07:14:36.301Z,98369.09
2022-08-06T07:17:45.583Z,98371.81
2022-08-06T07:19:57.799Z,98374.28
2022-08-06T07:22:27.993Z,98370.00
2022-08-06T07:25:01.917Z,98362.94
2022-08-06T07:27:44.949Z,98368.13
2022-08-06T07:30:21.225Z,98368.94
2022-08-06T07:32:53.503Z,98367.69
2022-08-06T07:35:21.748Z,98375.22
2022-08-06T07:38:00.988Z,98392.53
2022-08-06T07:40:52.794Z,98397.69
2022-08-06T07:43:35.049Z,98393.03
2022-08-06T07:46:07.680Z,98406.97
2022-08-06T07:48:52.388Z,98403.81
2022-08-06T07:51:34.450Z,98411.28
2022-08-06T07:54:09.359Z,98414.56
2022-08-06T07:57:00.458Z,98418.81
2022-08-06T07:59:31.267Z,98422.59
2022-08-06T08:02:02.531Z,98433.88
2022-08-06T08:04:52.112Z,98428.66
2022-08-06T08:07:37.983Z,98435.38
2022-08-06T08:10:15.492Z,98447.41
2022-08-06T08:12:45.269Z,98459.78
2022-08-06T08:15:23.222Z,98455.50
2022-08-06T08:17:57.687Z,98460.22
2022-08-06T08:20:36.469Z,98464.44
2022-08-06T08:23:08.503Z,98454.75
2022-08-06T08:25:53.194Z,98462.66
2022-08-06T08:28:22.145Z,98457.31
2022-08-06T08:30:50.587Z,98465.66
2022-08-06T08:33:21.023Z,98466.66
2022-08-06T08:36:00.299Z,98479.31
2022-08-06T08:38:34.950Z,98480.03
2022-08-06T08:41:22.155Z,98479.69
2022-08-06T08:44:03.816Z,98484.00
2022-08-06T08:46:37.930Z,98490.97
2022-08-06T08:49:26.277Z,98491.16
2022-08-06T08:51:56.763Z,98492.47
2022-08-06T08:54:28.625Z,98497.13
2022-08-06T08:57:11.133Z,98496.63
2022-08-06T08:59:56.919Z,98491.81
2022-08-06T09:02:28.610Z,98494.63
2022-08-06T09:04:59.415Z,98503.13
2022-08-06T09:07:36.803Z,98511.41
2022-08-06T09:10:09.317Z,98507.91
2022-08-06T09:12:45.732Z,98506.22
2022-08-06T09:15:19.401Z,98506.03
2022-08-06T09:18:26.469Z,98501.81
2022-08-06T09:20:37.803Z,98512.44
2022-08-06T09:23:19.150Z,98508.53
2022-08-06T09:25:58.838Z,98506.66
2022-08-06T09:28:46.802Z,98520.53
2022-08-06T09:31:22.005Z,98520.56
2022-08-06T09:34:29.260Z,98527.66
2022-08-06T09:36:56.974Z,98532.41
2022-08-06T09:39:46.562Z,98535.28
2022-08-06T09:42:48.147Z,98540.91
2022-08-06T09:45:42.260Z,98542.78
2022-08-06T09:48:17.347Z,98539.84
2022-08-06T09:50:51.355Z,98547.81
2022-08-06T09:53:21.710Z,98550.00
2022-08-06T09:55:53.161Z,98557.53
2022-08-06T09:58:37.784Z,98565.22
2022-08-06T10:01:23.393Z,98569.38
2022-08-06T10:04:03.396Z,98564.88
2022-08-06T10:06:39.875Z,98572.69
2022-08-06T10:09:21.041Z,98574.34
2022-08-06T10:12:01.611Z,98571.69
2022-08-06T10:14:33.640Z,98578.38
2022-08-06T10:17:15.527Z,98578.19
2022-08-06T10:20:09.690Z,98584.53
2022-08-06T10:22:50.085Z,98583.72
2022-08-06T10:25:29.568Z,98584.22
2022-08-06T10:28:01.586Z,98601.03
2022-08-06T10:30:35.761Z,98599.03
2022-08-06T10:33:18.348Z,98603.06
2022-08-06T10:35:59.022Z,98604.06
2022-08-06T10:38:38.687Z,98614.19
2022-08-06T10:41:59.924Z,98610.03
2022-08-06T10:44:07.067Z,98626.16
2022-08-06T10:46:36.406Z,98623.97
2022-08-06T10:50:25.294Z,98616.81
2022-08-06T10:51:58.995Z,98623.34
2022-08-06T10:54:28.200Z,98623.97
2022-08-06T10:56:56.933Z,98624.00
2022-08-06T10:59:40.965Z,98628.84
2022-08-06T11:02:36.112Z,98632.31
2022-08-06T11:05:17.915Z,98630.66
2022-08-06T11:08:19.679Z,98637.81
2022-08-06T11:11:29.905Z,98645.94
2022-08-06T11:14:14.836Z,98640.63
2022-08-06T11:17:00.647Z,98645.69
2022-08-06T11:19:58.139Z,98645.00
2022-08-06T11:22:54.157Z,98651.31
2022-08-06T11:25:44.073Z,98656.78
2022-08-06T11:28:15.612Z,98654.81
2022-08-06T11:30:51.701Z,98653.94
2022-08-06T11:33:42.935Z,98664.22
2022-08-06T11:36:26.061Z,98659.44
2022-08-06T11:38:59.179Z,98656.09
2022-08-06T11:41:57.020Z,98662.09
2022-08-06T11:45:08.144Z,98660.91
2022-08-06T11:48:26.830Z,98658.13
2022-08-06T11:50:55.635Z,98663.47
2022-08-06T11:53:52.405Z,98651.66
2022-08-06T11:56:25.545Z,98656.34
2022-08-06T11:59:16.170Z,98655.34
2022-08-06T12:01:47.797Z,98657.25
2022-08-06T12:04:36.325Z,98667.91
2022-08-06T12:07:37.257Z,98654.28
2022-08-06T12:10:07.735Z,98662.91
2022-08-06T12:12:46.796Z,98664.28
2022-08-06T12:15:20.134Z,98658.44
2022-08-06T12:18:19.038Z,98662.09
2022-08-06T12:20:49.432Z,98660.44
2022-08-06T12:23:53.991Z,98665.41
2022-08-06T12:26:13.658Z,98653.75
2022-08-06T12:28:44.071Z,98653.25
2022-08-06T12:31:36.274Z,98664.19
2022-08-06T12:33:59.709Z,98660.34
2022-08-06T12:36:35.364Z,98664.19
2022-08-06T12:39:19.377Z,98672.19
2022-08-06T12:41:47.583Z,98666.22
2022-08-06T12:44:20.225Z,98671.19
2022-08-06T12:47:13.952Z,98679.19
2022-08-06T12:49:43.723Z,98673.53
2022-08-06T12:52:30.108Z,98670.56
2022-08-06T12:54:58.015Z,98675.06
2022-08-06T12:57:58.758Z,98664.41
2022-08-06T13:00:16.937Z,98666.72
2022-08-06T13:02:46.538Z,98665.22
2022-08-06T13:05:15.809Z,98668.72
2022-08-06T13:07:53.834Z,98670.03
2022-08-06T13:10:35.354Z,98665.41
2022-08-06T13:14:12.409Z,98668.56
2022-08-06T13:16:06.159Z,98673.75
2022-08-06T13:18:41.992Z,98677.53
2022-08-06T13:21:21.136Z,98678.72
2022-08-06T13:23:55.819Z,98670.06
2022-08-06T13:26:29.490Z,98669.22
2022-08-06T13:30:32.047Z,98667.56
2022-08-06T13:32:27.712Z,98669.53
2022-08-06T13:35:17.778Z,98671.38
2022-08-06T13:37:57.395Z,98669.88
2022-08-06T13:40:51.717Z,98670.72
2022-08-06T13:43:55.852Z,98674.56
2022-08-06T13:46:32.800Z,98672.75
2022-08-06T13:49:12.249Z,98677.22
2022-08-06T13:51:48.770Z,98681.06
2022-08-06T13:54:28.247Z,98676.56
2022-08-06T13:56:59.953Z,98676.88
2022-08-06T13:59:40.599Z,98684.22
2022-08-06T14:02:12.475Z,98673.44
2022-08-06T14:04:40.706Z,98672.22
2022-08-06T14:07:08.427Z,98675.50
2022-08-06T14:09:41.169Z,98671.25
2022-08-06T14:12:29.238Z,98667.00
2022-08-06T14:14:59.214Z,98670.13
2022-08-06T14:17:34.054Z,98663.13
2022-08-06T14:20:17.619Z,98670.13
2022-08-06T14:22:48.182Z,98676.78
2022-08-06T14:25:17.299Z,98666.22
2022-08-06T14:27:45.110Z,98669.13
2022-08-06T14:30:26.367Z,98668.66
2022-08-06T14:33:11.207Z,98677.63
2022-08-06T14:35:51.582Z,98672.28
2022-08-06T14:38:32.749Z,98672.50
2022-08-06T14:41:52.271Z,98667.69
2022-08-06T14:44:29.895Z,98667.97
2022-08-06T14:46:59.369Z,98664.91
2022-08-06T14:49:33.313Z,98663.53
2022-08-06T14:52:20.182Z,98661.13
2022-08-06T14:54:55.887Z,98660.28
2022-08-06T14:58:03.609Z,98661.63
2022-08-06T15:00:21.864Z,98659.28
2022-08-06T15:02:55.910Z,98661.31
2022-08-06T15:05:42.721Z,98662.88
2022-08-06T15:08:11.250Z,98663.72
2022-08-06T15:10:40.267Z,98666.06
2022-08-06T15:13:07.754Z,98657.88
2022-08-06T15:15:46.785Z,98667.38
2022-08-06T15:18:40.405Z,98663.63
2022-08-06T15:21:10.163Z,98655.44
2022-08-06T15:23:54.026Z,98665.81
2022-08-06T15:26:42.273Z,98662.94
2022-08-06T15:29:15.562Z,98657.78
2022-08-06T15:31:45.647Z,98659.38
2022-08-06T15:34:19.642Z,98657.25
2022-08-06T15:37:02.154Z,98659.84
2022-08-06T15:39:53.553Z,98656.97
2022-08-06T15:42:24.376Z,98643.72
2022-08-06T15:44:54.008Z,98650.31
2022-08-06T15:47:31.570Z,98645.69
2022-08-06T15:50:05.072Z,98646.56
2022-08-06T15:52:42.611Z,98649.94
2022-08-06T15:55:16.558Z,98648.41
2022-08-06T15:58:05.342Z,98642.44
2022-08-06T16:00:44.173Z,98648.31
2022-08-06T16:03:27.742Z,98651.00
2022-08-06T16:06:09.654Z,98654.19
2022-08-06T16:08:43.717Z,98645.94
2022-08-06T16:11:15.314Z,98656.09
2022-08-06T16:13:53.681Z,98653.84
2022-08-06T16:16:27.414Z,98658.53
2022-08-06T16:19:02.544Z,98660.19
2022-08-06T16:21:33.836Z,98653.91
2022-08-06T16:24:03.909Z,98655.22
2022-08-06T16:26:40.652Z,98654.25
2022-08-06T16:29:12.391Z,98652.09
2022-08-06T16:31:47.480Z,98650.94
2022-08-06T16:34:23.124Z,98653.44
2022-08-06T16:36:53.081Z,98658.25
2022-08-06T16:42:10.407Z,98655.16
2022-08-06T16:54:11.640Z,98658.75
2022-08-06T16:55:52.077Z,98657.94
2022-08-06T16:58:35.275Z,98662.47
2022-08-06T17:04:00.651Z,98674.31
2022-08-06T17:06:31.100Z,98663.03
2022-08-06T17:09:02.263Z,98670.69
2022-08-06T17:11:57.541Z,98671.69
2022-08-06T17:14:36.204Z,98667.41
2022-08-06T17:17:08.571Z,98670.41
2022-08-06T17:19:38.237Z,98667.44
2022-08-06T17:22:09.281Z,98676.56
2022-08-06T17:24:42.538Z,98675.56
2022-08-06T17:27:16.124Z,98678.22
2022-08-06T17:29:48.981Z,98675.56
2022-08-06T17:35:14.903Z,98680.03
2022-08-06T17:37:46.113Z,98677.22
2022-08-06T17:40:19.675Z,98680.38
2022-08-06T17:43:23.004Z,98688.88
2022-08-06T17:46:02.608Z,98687.19
2022-08-06T17:48:48.359Z,98688.53
2022-08-06T17:51:21.314Z,98680.91
2022-08-06T17:53:53.986Z,98679.56
2022-08-06T17:56:29.137Z,98692.69
2022-08-06T17:59:17.705Z,98695.53
2022-08-06T18:01:51.063Z,98697.53
2022-08-06T18:04:29.983Z,98693.38
2022-08-06T18:07:12.214Z,98696.88
2022-08-06T18:10:09.083Z,98703.34
2022-08-06T18:12:49.312Z,98704.34
2022-08-06T18:15:22.715Z,98699.19
2022-08-06T18:18:03.874Z,98708.66
2022-08-06T18:20:38.351Z,98698.19
2022-08-06T18:23:21.574Z,98706.34
2022-08-06T18:25:57.615Z,98707.50
2022-08-06T18:28:39.973Z,98715.50
2022-08-06T18:31:20.085Z,98717.16
2022-08-06T18:33:53.517Z,98718.16
2022-08-06T18:36:32.974Z,98720.28
2022-08-06T18:39:01.706Z,98721.63
2022-08-06T18:41:32.948Z,98718.31
2022-08-06T18:44:01.736Z,98723.81
2022-08-06T18:46:56.176Z,98730.09
2022-08-06T18:49:26.747Z,98723.63
2022-08-06T18:52:01.314Z,98728.94
2022-08-06T18:54:30.154Z,98724.78
2022-08-06T18:56:58.149Z,98730.25
2022-08-06T18:59:51.159Z,98730.56
2022-08-06T19:02:23.179Z,98735.72
2022-08-06T19:04:55.334Z,98735.88
2022-08-06T19:07:27.011Z,98737.88
2022-08-06T19:10:14.756Z,98746.69
2022-08-06T19:12:43.163Z,98748.69
2022-08-06T19:15:12.446Z,98750.69
2022-08-06T19:18:10.143Z,98751.66
2022-08-06T19:20:31.008Z,98748.31
2022-08-06T19:23:02.681Z,98751.97
2022-08-06T19:25:52.036Z,98746.66
2022-08-06T19:28:35.902Z,98748.63
2022-08-06T19:31:11.451Z,98739.81
2022-08-06T19:33:40.021Z,98752.28
2022-08-06T19:36:30.920Z,98753.28
2022-08-06T19:38:55.624Z,98756.06
2022-08-06T19:42:00.353Z,98750.38
2022-08-06T19:44:26.019Z,98758.53
2022-08-06T19:47:00.570Z,98754.88
2022-08-06T19:49:40.666Z,98758.19
2022-08-06T19:52:09.705Z,98756.72
2022-08-06T19:54:41.545Z,98764.22
2022-08-06T19:57:13.554Z,98756.06
2022-08-06T20:00:47.771Z,98764.91
2022-08-06T20:02:31.645Z,98753.06
2022-08-06T20:04:59.229Z,98758.56
2022-08-06T20:07:28.040Z,98758.72
2022-08-06T20:10:00.946Z,98758.56
2022-08-06T20:12:35.332Z,98757.03
2022-08-06T20:15:14.020Z,98764.19
2022-08-06T20:17:49.321Z,98761.47
2022-08-06T20:20:28.729Z,98768.44
2022-08-06T20:23:08.665Z,98772.59
2022-08-06T20:26:10.574Z,98768.13
2022-08-06T20:29:08.672Z,98771.44
2022-08-06T20:31:21.014Z,98764.31
2022-08-06T20:33:57.947Z,98768.13
2022-08-06T20:36:29.739Z,98769.28
2022-08-06T20:38:58.872Z,98763.31
2022-08-06T20:42:03.419Z,98758.44
2022-08-06T20:44:19.686Z,98769.03
2022-08-06T20:47:21.600Z,98762.00
2022-08-06T20:50:02.360Z,98772.06
2022-08-06T20:52:24.820Z,98769.53
2022-08-06T20:54:56.594Z,98767.03
2022-08-06T20:57:28.460Z,98769.53
2022-08-06T20:59:59.302Z,98775.00
2022-08-06T21:02:32.451Z,98774.84
2022-08-06T21:05:13.942Z,98774.50
2022-08-06T21:07:56.744Z,98767.53
2022-08-06T21:10:31.796Z,98781.66
2022-08-06T21:13:02.721Z,98779.31
2022-08-06T21:15:54.330Z,98786.47
2022-08-06T21:18:24.058Z,98776.78
2022-08-06T21:20:55.439Z,98782.34
2022-08-06T21:23:41.950Z,98785.63
2022-08-06T21:26:15.989Z,98787.50
2022-08-06T21:28:54.298Z,98794.44
2022-08-06T21:31:24.563Z,98783.13
2022-08-06T21:33:54.350Z,98786.09
2022-08-06T21:36:26.763Z,98785.09
2022-08-06T21:38:59.085Z,98797.69
2022-08-06T21:41:54.634Z,98794.53
2022-08-06T21:44:24.610Z,98794.28
2022-08-06T21:46:58.994Z,98783.84
2022-08-06T21:50:00.033Z,98797.19
2022-08-06T21:52:28.350Z,98793.47
2022-08-06T21:55:05.461Z,98793.72
2022-08-06T21:57:48.144Z,98792.53
2022-08-06T22:00:40.025Z,98796.94
2022-08-06T22:04:38.325Z,98792.47
2022-08-06T22:06:22.534Z,98792.38
2022-08-06T22:08:54.572Z,98787.09
2022-08-06T22:12:37.513Z,98785.69
2022-08-06T22:14:17.069Z,98790.47
2022-08-06T22:16:54.318Z,98791.88
2022-08-06T22:19:33.414Z,98792.34
2022-08-06T22:22:07.692Z,98796.81
2022-08-06T22:24:37.672Z,98790.84
2022-08-06T22:27:12.611Z,98791.72
2022-08-06T22:30:04.278Z,98791.16
2022-08-06T22:32:36.344Z,98783.50
2022-08-06T22:35:09.300Z,98785.84
2022-08-06T22:38:17.024Z,98792.53
2022-08-06T22:40:28.627Z,98782.09
2022-08-06T22:43:01.385Z,98786.94
2022-08-06T22:46:00.357Z,98786.63
2022-08-06T22:48:35.602Z,98786.38
2022-08-06T22:51:10.622Z,98786.50
2022-08-06T22:54:28.483Z,98780.13
2022-08-06T22:56:30.423Z,98778.59
2022-08-06T22:59:31.576Z,98775.50
2022-08-06T23:02:06.470Z,98772.56
2022-08-06T23:04:41.213Z,98774.22
2022-08-06T23:07:10.840Z,98771.72
2022-08-06T23:09:41.194Z,98762.94
2022-08-06T23:12:18.438Z,98764.59
2022-08-06T23:14:55.050Z,98764.91
2022-08-06T23:17:24.270Z,98754.88
2022-08-06T23:19:57.079Z,98747.13
2022-08-06T23:22:28.957Z,98757.78
2022-08-06T23:25:58.172Z,98752.81
2022-08-06T23:27:45.542Z,98756.69
2022-08-06T23:30:20.216Z,98758.66
2022-08-06T23:32:50.086Z,98765.63
2022-08-06T23:35:36.693Z,98763.13
2022-08-06T23:38:31.510Z,98760.75
2022-08-06T23:40:58.926Z,98758.25
2022-08-06T23:43:30.552Z,98757.84
2022-08-06T23:46:03.678Z,98754.63
2022-08-06T23:48:32.893Z,98747.00
2022-08-06T23:51:05.429Z,98740.91
2022-08-06T23:54:08.936Z,98736.00
2022-08-06T23:56:26.606Z,98744.53
2022-08-06T23:58:57.328Z,98741.19
